Time;durP1;ratioP1;P1;durP2;ratioP2;P2;SDS_P1;SDS_P2;PMS_P1;PMS_P2;Temp;Humidity;BMP_temperature;BMP_pressure;BME280_temperature;BME280_humidity;BME280_pressure;Samples;Min_cycle;Max_cycle;Signal;HPM_P1;HPM_P2
2021/12/21 00:01:25;;;;;;;0.47;0.47;;;;;;;18.66;57.90;99090.31;3130243;28;20459;-68
2021/12/21 00:02:57;;;;;;;0.65;0.65;;;;;;;18.64;58.02;99092.38;3131416;28;20052;-69
2021/12/21 00:04:29;;;;;;;0.57;0.50;;;;;;;18.64;57.94;99090.50;3131680;28;20044;-68
2021/12/21 00:06:01;;;;;;;0.70;0.70;;;;;;;18.64;57.90;99093.19;3129037;28;20059;-69
2021/12/21 00:07:33;;;;;;;1.23;0.50;;;;;;;18.62;58.04;99102.47;3129454;28;20044;-69
2021/12/21 00:09:06;;;;;;;0.52;0.50;;;;;;;18.62;58.05;99095.22;3133562;28;20080;-69
2021/12/21 00:10:42;;;;;;;0.47;0.47;;;;;;;18.62;57.97;99094.41;3132393;28;20045;-69
2021/12/21 00:12:17;;;;;;;1.42;0.70;;;;;;;18.61;58.22;99095.41;3132287;28;20502;-67
2021/12/21 00:14:10;;;;;;;0.30;0.30;;;;;;;18.60;58.01;99097.28;3136788;28;20478;-68
2021/12/21 00:15:54;;;;;;;0.90;0.60;;;;;;;18.60;58.15;99099.97;3129971;28;20057;-69
2021/12/21 00:19:37;;;;;;;0.52;0.43;;;;;;;18.58;58.17;99095.81;3130520;28;20056;-68
2021/12/21 00:21:19;;;;;;;0.50;0.50;;;;;;;18.57;58.25;99096.84;3132236;28;20136;-68
2021/12/21 00:24:50;;;;;;;0.77;0.60;;;;;;;18.54;58.29;99104.25;3096546;28;20062;-68
2021/12/21 00:26:22;;;;;;;0.40;0.40;;;;;;;18.54;58.10;99096.19;3131380;28;20041;-68
2021/12/21 00:27:54;;;;;;;0.73;0.70;;;;;;;18.50;58.26;99092.22;3135971;28;20485;-69
2021/12/21 00:29:26;;;;;;;0.63;0.50;;;;;;;18.52;58.08;99094.72;3129634;28;20049;-69
2021/12/21 00:30:58;;;;;;;1.02;0.73;;;;;;;18.50;58.18;99091.41;3133366;28;20118;-68
2021/12/21 00:32:30;;;;;;;0.50;0.50;;;;;;;18.49;58.10;99090.56;3132391;28;20044;-69
2021/12/21 00:34:05;;;;;;;0.93;0.65;;;;;;;18.48;58.30;99093.44;3129002;28;20053;-69
2021/12/21 00:35:37;;;;;;;0.63;0.60;;;;;;;18.47;58.11;99091.75;3132095;28;20065;-69
2021/12/21 00:37:09;;;;;;;0.60;0.60;;;;;;;18.47;58.45;99097.13;3132725;28;20048;-69
2021/12/21 00:38:41;;;;;;;0.70;0.70;;;;;;;18.46;58.12;99085.56;3130751;28;20057;-69
2021/12/21 00:40:15;;;;;;;0.65;0.57;;;;;;;18.49;58.04;99095.09;3132796;28;20533;-68
2021/12/21 00:41:47;;;;;;;0.70;0.68;;;;;;;18.49;57.97;99090.56;3133121;28;20056;-68
2021/12/21 00:43:19;;;;;;;0.68;0.65;;;;;;;18.50;58.09;99102.97;3135695;28;20052;-69
2021/12/21 00:44:51;;;;;;;0.57;0.50;;;;;;;18.50;58.21;99092.22;3135613;28;20075;-68
2021/12/21 00:46:23;;;;;;;1.27;0.60;;;;;;;18.50;57.93;99091.41;3132452;28;20128;-67
2021/12/21 00:47:53;;;;;;;0.52;0.40;;;;;;;18.50;57.98;99084.19;3133848;28;20055;-68
2021/12/21 00:49:27;;;;;;;0.55;0.50;;;;;;;18.51;57.95;99093.06;3133902;28;20056;-69
2021/12/21 00:51:01;;;;;;;0.50;0.50;;;;;;;18.52;58.00;99100.91;3128571;28;20052;-69
2021/12/21 00:52:33;;;;;;;1.17;1.08;;;;;;;18.50;58.23;99102.97;3134817;28;20506;-69
2021/12/21 00:54:04;;;;;;;0.82;0.68;;;;;;;18.50;57.98;99102.97;3137027;28;20136;-69
2021/12/21 00:55:38;;;;;;;1.08;0.77;;;;;;;18.49;58.01;99098.63;3128247;28;20055;-68
2021/12/21 00:57:10;;;;;;;0.43;0.43;;;;;;;18.49;58.15;99095.94;3136732;28;20071;-67
2021/12/21 00:58:41;;;;;;;0.65;0.50;;;;;;;18.49;58.25;99095.94;3133486;28;20052;-67
2021/12/21 01:00:16;;;;;;;0.60;0.60;;;;;;;18.49;58.12;99100.47;3134806;28;21109;-69
2021/12/21 01:01:48;;;;;;;1.05;0.40;;;;;;;18.46;58.05;99099.00;3135826;28;20040;-69
2021/12/21 01:03:20;;;;;;;0.70;0.65;;;;;;;18.46;58.12;99101.69;3135708;28;20072;-69
2021/12/21 01:04:55;;;;;;;0.40;0.40;;;;;;;18.46;58.42;99098.16;3127378;28;20246;-68
2021/12/21 01:06:39;;;;;;;0.50;0.50;;;;;;;18.46;58.11;99103.53;3128588;28;20404;-69
2021/12/21 01:08:15;;;;;;;0.52;0.45;;;;;;;18.45;58.31;99101.88;3134905;28;20505;-68
2021/12/21 01:11:38;;;;;;;0.80;0.57;;;;;;;18.43;58.30;99107.44;3126221;28;20052;-68
2021/12/21 01:13:15;;;;;;;0.85;0.70;;;;;;;18.42;58.26;99107.66;3134705;28;20117;-69
2021/12/21 01:15:04;;;;;;;0.45;0.40;;;;;;;18.42;58.08;99110.34;3130241;28;20072;-68
2021/12/21 01:16:41;;;;;;;0.50;0.50;;;;;;;18.41;58.16;99112.16;3135809;28;20409;-68
2021/12/21 01:18:17;;;;;;;1.10;0.70;;;;;;;18.41;58.31;99101.41;3139414;28;20628;-68
2021/12/21 01:19:59;;;;;;;1.13;0.63;;;;;;;18.42;58.13;99110.34;3135796;28;20478;-68
2021/12/21 01:21:35;;;;;;;1.67;0.65;;;;;;;18.40;58.02;99112.38;3133278;28;20131;-68
2021/12/21 01:25:14;;;;;;;0.25;0.22;;;;;;;18.39;58.21;99111.53;3132761;28;20055;-67
2021/12/21 01:27:02;;;;;;;0.73;0.50;;;;;;;18.40;58.19;99123.94;3132581;28;20697;-69
2021/12/21 01:28:42;;;;;;;0.88;0.43;;;;;;;18.40;58.10;99123.13;3133764;28;20049;-67
2021/12/21 01:30:24;;;;;;;0.52;0.50;;;;;;;18.36;58.06;99122.66;3129670;28;20102;-69
2021/12/21 01:32:03;;;;;;;0.60;0.60;;;;;;;18.37;58.27;99120.81;3136229;28;20040;-68
2021/12/21 01:33:49;;;;;;;0.80;0.60;;;;;;;18.36;58.17;99124.50;3136673;28;20885;-69
2021/12/21 01:35:28;;;;;;;0.47;0.40;;;;;;;18.35;58.09;99123.69;3134003;28;20045;-67
2021/12/21 01:37:05;;;;;;;0.77;0.60;;;;;;;18.36;58.04;99128.03;3132760;28;20064;-68
2021/12/21 01:38:45;;;;;;;0.22;0.22;;;;;;;18.36;58.07;99127.19;3132015;28;20052;-69
2021/12/21 01:40:28;;;;;;;0.93;0.47;;;;;;;18.37;58.30;99124.31;3135737;28;20704;-69
2021/12/21 01:42:07;;;;;;;0.50;0.50;;;;;;;18.39;58.25;99127.66;3137602;28;20052;-68
2021/12/21 01:43:43;;;;;;;0.60;0.60;;;;;;;18.42;58.10;99121.06;3129257;28;20452;-68
2021/12/21 01:50:47;;;;;;;1.08;0.85;;;;;;;18.59;57.89;99124.34;3123281;28;20056;-68
2021/12/21 01:52:23;;;;;;;0.77;0.57;;;;;;;18.60;57.92;99126.00;3124821;28;20049;-68
2021/12/21 01:53:55;;;;;;;0.25;0.25;;;;;;;18.62;57.97;99123.97;3117326;28;20053;-69
2021/12/21 01:55:25;;;;;;;0.70;0.70;;;;;;;18.64;57.74;99113.88;3115951;28;20159;-69
2021/12/21 01:56:57;;;;;;;0.50;0.50;;;;;;;18.65;57.67;99123.56;3120871;28;20045;-68
2021/12/21 01:58:33;;;;;;;;;;;;;;;18.64;57.61;99121.94;3123209;28;20288;-69
2021/12/21 02:00:06;;;;;;;0.70;0.40;;;;;;;18.66;57.71;99118.00;3118231;28;19925;-68
2021/12/21 02:01:38;;;;;;;0.80;0.65;;;;;;;18.66;57.79;99115.31;3123541;28;20045;-69
2021/12/21 02:03:10;;;;;;;0.60;0.55;;;;;;;18.68;57.97;99115.13;3122050;28;20072;-68
2021/12/21 02:04:43;;;;;;;0.52;0.52;;;;;;;18.68;57.84;99115.94;3120811;28;20077;-68
2021/12/21 02:06:17;;;;;;;0.52;0.47;;;;;;;18.68;57.92;99115.94;3124073;28;20053;-69
2021/12/21 02:07:50;;;;;;;0.70;0.70;;;;;;;18.69;57.92;99114.09;3133003;28;20580;-69
2021/12/21 02:09:28;;;;;;;0.52;0.52;;;;;;;18.69;57.64;99116.78;3131316;28;20104;-68
2021/12/21 02:11:04;;;;;;;1.15;0.70;;;;;;;18.69;57.66;99119.47;3134647;28;20549;-67
2021/12/21 02:12:36;;;;;;;0.50;0.50;;;;;;;18.69;57.63;99119.47;3134315;28;20398;-68
2021/12/21 02:14:10;;;;;;;0.82;0.68;;;;;;;18.70;57.85;99113.91;3133086;28;20140;-67
2021/12/21 02:15:42;;;;;;;0.70;0.60;;;;;;;18.68;57.71;99118.63;3132040;28;20720;-69
2021/12/21 02:17:38;;;;;;;0.68;0.60;;;;;;;18.69;57.65;99119.47;3134223;28;20072;-68
2021/12/21 02:19:19;;;;;;;0.50;0.50;;;;;;;18.68;57.81;99117.81;3123523;28;20041;-68
2021/12/21 02:20:56;;;;;;;1.00;0.63;;;;;;;18.67;57.85;99119.69;3130381;28;20049;-68
2021/12/21 02:22:31;;;;;;;1.02;0.50;;;;;;;18.66;57.82;99118.00;3133638;28;20107;-69
2021/12/21 02:24:08;;;;;;;0.50;0.45;;;;;;;18.66;57.63;99114.47;3137882;28;20179;-69
2021/12/21 02:26:02;;;;;;;1.10;0.55;;;;;;;18.66;57.81;99114.47;3132098;28;20421;-69
2021/12/21 02:27:43;;;;;;;0.73;0.73;;;;;;;18.65;57.81;99110.13;3134572;28;20131;-69
2021/12/21 02:29:25;;;;;;;1.90;0.93;;;;;;;18.65;57.99;99112.81;3130316;28;20055;-69
2021/12/21 02:30:56;;;;;;;0.95;0.60;;;;;;;18.63;57.77;99118.38;3132220;28;20540;-68
2021/12/21 02:32:29;;;;;;;0.40;0.40;;;;;;;18.64;57.75;99113.88;3127818;28;20053;-68
2021/12/21 02:34:01;;;;;;;0.70;0.65;;;;;;;18.63;57.66;99122.94;3134751;28;20900;-68
2021/12/21 02:35:32;;;;;;;0.60;0.60;;;;;;;18.62;57.68;99122.09;3129745;28;20048;-67
2021/12/21 02:37:06;;;;;;;0.55;0.55;;;;;;;18.61;57.97;99122.28;3136188;28;20329;-68
2021/12/21 02:38:36;;;;;;;0.77;0.60;;;;;;;18.60;57.92;99123.31;3135888;28;20045;-68
2021/12/21 02:40:09;;;;;;;0.50;0.50;;;;;;;18.59;58.03;99127.03;3136449;28;20056;-68
2021/12/21 02:41:42;;;;;;;0.70;0.60;;;;;;;18.59;57.97;99121.66;3130986;28;20074;-69
2021/12/21 02:43:13;;;;;;;0.40;0.40;;;;;;;18.58;57.92;99130.72;3137865;28;20037;-69
2021/12/21 02:44:48;;;;;;;0.75;0.50;;;;;;;18.56;57.96;99114.00;3133150;28;20053;-69
2021/12/21 02:46:20;;;;;;;0.75;0.70;;;;;;;18.56;58.03;99122.06;3127772;28;20045;-68
2021/12/21 02:47:52;;;;;;;0.82;0.57;;;;;;;18.54;57.99;99119.53;3132534;28;20055;-68
2021/12/21 02:49:24;;;;;;;1.35;0.90;;;;;;;18.52;57.96;99119.72;3134502;28;20167;-69
2021/12/21 02:50:55;;;;;;;0.30;0.30;;;;;;;18.52;57.78;99122.41;3133914;28;20041;-68
2021/12/21 02:52:28;;;;;;;0.40;0.40;;;;;;;18.52;57.82;99117.03;3132996;28;20053;-67
2021/12/21 02:54:00;;;;;;;0.52;0.52;;;;;;;18.49;58.02;99112.03;3133879;28;20052;-69
2021/12/21 02:55:32;;;;;;;0.40;0.40;;;;;;;18.50;57.81;99113.72;3133468;28;20613;-67
2021/12/21 02:57:04;;;;;;;1.00;0.75;;;;;;;18.48;58.04;99114.94;3137668;28;20441;-68
2021/12/21 02:58:36;;;;;;;0.82;0.60;;;;;;;18.47;58.03;99114.09;3133568;28;20041;-67
2021/12/21 03:00:10;;;;;;;0.57;0.57;;;;;;;18.50;58.22;99119.09;3137189;28;20068;-69
2021/12/21 03:01:42;;;;;;;0.85;0.80;;;;;;;18.50;58.02;99108.34;3132800;28;20044;-68
2021/12/21 03:03:14;;;;;;;0.65;0.65;;;;;;;18.51;57.98;99114.56;3135730;28;20045;-68
2021/12/21 03:04:49;;;;;;;0.90;0.90;;;;;;;18.51;57.95;99114.56;3117906;28;20045;-69
2021/12/21 03:06:53;;;;;;;0.55;0.55;;;;;;;18.51;57.93;99117.25;3117761;28;20556;-69
2021/12/21 03:08:25;;;;;;;0.95;0.60;;;;;;;18.50;58.01;99116.41;3121911;28;20731;-69
2021/12/21 03:09:59;;;;;;;1.17;0.80;;;;;;;18.48;58.04;99117.63;3124136;28;20492;-69
2021/12/21 03:11:47;;;;;;;0.55;0.55;;;;;;;18.48;57.98;99121.13;3119066;28;21034;-69
2021/12/21 03:15:08;;;;;;;0.68;0.55;;;;;;;18.47;57.96;99122.16;3125660;28;20076;-68
2021/12/21 03:16:41;;;;;;;0.77;0.68;;;;;;;18.47;57.99;99122.16;3123939;28;20049;-69
2021/12/21 03:18:12;;;;;;;0.68;0.68;;;;;;;18.47;58.10;99119.47;3118692;28;20128;-69
2021/12/21 03:19:44;;;;;;;0.70;0.50;;;;;;;18.47;57.79;99124.84;3121945;28;20053;-68
2021/12/21 03:21:15;;;;;;;0.57;0.57;;;;;;;18.46;58.05;99117.81;3121104;28;20077;-68
2021/12/21 03:22:46;;;;;;;0.52;0.52;;;;;;;18.45;58.00;99120.69;3123579;28;20044;-68
2021/12/21 03:24:20;;;;;;;0.88;0.57;;;;;;;18.44;58.11;99121.69;3114006;28;20049;-67
2021/12/21 03:25:51;;;;;;;0.95;0.60;;;;;;;18.42;57.99;99127.28;3121243;28;20094;-69
2021/12/21 03:27:23;;;;;;;0.50;0.50;;;;;;;18.42;57.91;99126.44;3126464;28;20612;-68
2021/12/21 03:28:54;;;;;;;;;;;;;;;18.41;58.15;99130.13;3121432;28;20049;-68
2021/12/21 03:30:27;;;;;;;1.00;0.65;;;;;;;18.41;58.01;99128.28;3113680;28;19920;-67
2021/12/21 03:32:01;;;;;;;0.88;0.70;;;;;;;18.40;57.94;99129.31;3119423;28;20049;-68
2021/12/21 03:33:33;;;;;;;0.68;0.60;;;;;;;18.41;58.14;99128.28;3119483;28;20047;-68
2021/12/21 03:35:05;;;;;;;0.80;0.60;;;;;;;18.40;58.22;99118.56;3116475;28;20045;-69
2021/12/21 03:36:38;;;;;;;0.47;0.47;;;;;;;18.40;57.93;99129.31;3115302;28;20063;-69
2021/12/21 03:38:10;;;;;;;0.77;0.50;;;;;;;18.41;58.02;99130.97;3117417;28;20072;-69
2021/12/21 03:39:46;;;;;;;0.40;0.40;;;;;;;18.40;58.07;99128.47;3118382;28;20490;-69
2021/12/21 03:41:19;;;;;;;0.95;0.50;;;;;;;18.39;58.13;99138.41;3119893;28;20064;-69
2021/12/21 03:42:51;;;;;;;0.40;0.40;;;;;;;18.38;58.17;99133.19;3123176;28;20044;-69
2021/12/21 03:44:23;;;;;;;0.68;0.40;;;;;;;18.37;58.08;99131.56;3119055;28;20136;-68
2021/12/21 03:46:02;;;;;;;1.40;0.60;;;;;;;18.37;58.04;99134.25;3117287;28;20052;-68
2021/12/21 03:47:34;;;;;;;0.50;0.50;;;;;;;18.36;57.99;99128.03;3122960;28;20075;-69
2021/12/21 03:49:30;;;;;;;0.85;0.60;;;;;;;18.35;57.96;99126.34;3121007;28;20128;-69
2021/12/21 03:50:58;;;;;;;0.80;0.70;;;;;;;18.35;58.08;99130.91;3133902;28;20052;-68
2021/12/21 03:52:30;;;;;;;0.43;0.40;;;;;;;18.36;58.15;99130.72;3134050;28;20717;-67
2021/12/21 03:54:02;;;;;;;0.43;0.43;;;;;;;18.35;57.96;99123.69;3130666;28;20045;-69
2021/12/21 03:55:35;;;;;;;0.75;0.75;;;;;;;18.37;58.05;99118.94;3132234;28;20036;-68
2021/12/21 03:57:07;;;;;;;0.93;0.70;;;;;;;18.40;58.17;99123.94;3137054;28;20472;-69
2021/12/21 03:58:39;;;;;;;1.00;0.85;;;;;;;18.42;57.91;99118.38;3133802;28;20048;-68
2021/12/21 04:00:16;;;;;;;0.52;0.50;;;;;;;18.46;57.94;99114.28;3134696;28;20060;-69
2021/12/21 04:01:49;;;;;;;1.25;0.55;;;;;;;18.50;57.75;99112.91;3129714;28;20040;-67
2021/12/21 04:03:21;;;;;;;0.52;0.52;;;;;;;18.52;57.73;99125.09;3133304;28;20072;-68
2021/12/21 04:04:56;;;;;;;2.00;0.50;;;;;;;18.56;57.83;99127.41;3133618;28;20129;-69
2021/12/21 04:06:28;;;;;;;0.68;0.50;;;;;;;18.59;57.84;99124.34;3132286;28;20044;-68
2021/12/21 04:07:59;;;;;;;0.43;0.40;;;;;;;18.61;57.88;99124.97;3133014;28;20057;-69
2021/12/21 04:09:31;;;;;;;0.50;0.50;;;;;;;18.61;57.56;99128.50;3132272;28;20123;-68
2021/12/21 04:11:04;;;;;;;0.65;0.65;;;;;;;18.63;57.80;99125.63;3131308;28;20123;-68
2021/12/21 04:12:36;;;;;;;0.77;0.52;;;;;;;18.63;57.80;99125.63;3132885;28;22981;-69
2021/12/21 04:14:09;;;;;;;0.63;0.55;;;;;;;18.65;57.69;99131.63;3134094;28;20059;-68
2021/12/21 04:15:43;;;;;;;0.40;0.40;;;;;;;18.67;57.49;99126.91;3132070;28;20091;-68
2021/12/21 04:17:21;;;;;;;0.52;0.50;;;;;;;18.66;57.97;99131.44;3134507;28;20044;-69
2021/12/21 04:18:53;;;;;;;0.57;0.50;;;;;;;18.66;57.91;99126.06;3135309;28;20049;-69
2021/12/21 04:20:24;;;;;;;0.82;0.63;;;;;;;18.67;57.76;99129.59;3131089;28;20774;-69
2021/12/21 04:21:56;;;;;;;0.40;0.40;;;;;;;18.66;57.64;99123.38;3133966;28;20064;-69
2021/12/21 04:23:28;;;;;;;0.57;0.50;;;;;;;18.67;57.60;99127.75;3134226;28;20767;-68
2021/12/21 04:24:59;;;;;;;;;;;;;;;18.67;57.54;99134.97;3135105;28;20133;-69
2021/12/21 04:26:33;;;;;;;0.80;0.80;;;;;;;18.67;57.77;99130.41;3134383;28;20289;-68
2021/12/21 04:28:04;;;;;;;0.52;0.45;;;;;;;18.67;57.96;99137.66;3137145;28;20064;-69
2021/12/21 04:29:36;;;;;;;0.50;0.50;;;;;;;18.67;57.82;99137.66;3134219;28;20068;-69
2021/12/21 04:31:10;;;;;;;1.30;0.82;;;;;;;18.67;57.71;99132.28;3131289;28;20123;-68
2021/12/21 04:32:41;;;;;;;0.68;0.60;;;;;;;18.66;57.81;99134.13;3133694;28;20045;-68
2021/12/21 04:34:12;;;;;;;0.73;0.52;;;;;;;18.66;57.85;99127.91;3134367;28;20057;-68
2021/12/21 04:35:44;;;;;;;0.47;0.40;;;;;;;18.67;57.48;99140.34;3135132;28;20133;-70
2021/12/21 04:37:17;;;;;;;0.50;0.50;;;;;;;18.65;57.82;99131.63;3135799;28;20565;-69
2021/12/21 04:38:50;;;;;;;1.05;0.95;;;;;;;18.66;57.88;99136.81;3133971;28;20045;-68
2021/12/21 04:40:25;;;;;;;0.50;0.43;;;;;;;18.66;57.65;99127.91;3132307;28;20057;-69
2021/12/21 04:41:58;;;;;;;0.50;0.50;;;;;;;18.64;57.74;99122.75;3137733;28;20135;-68
2021/12/21 04:43:29;;;;;;;0.70;0.65;;;;;;;18.64;57.65;99135.34;3132250;28;20051;-67
2021/12/21 04:45:01;;;;;;;1.02;0.73;;;;;;;18.63;57.63;99133.66;3136300;28;20106;-68
2021/12/21 04:46:33;;;;;;;0.70;0.70;;;;;;;18.62;57.63;99129.34;3125408;28;20079;-69
2021/12/21 04:48:06;;;;;;;0.82;0.52;;;;;;;18.61;57.48;99130.34;3134525;28;20120;-68
2021/12/21 04:49:37;;;;;;;0.47;0.47;;;;;;;18.61;57.84;99135.72;3133607;28;20064;-69
2021/12/21 04:51:09;;;;;;;;;;;;;;;18.61;57.61;99141.09;3137682;28;20128;-68
2021/12/21 04:52:41;;;;;;;0.57;0.57;;;;;;;18.60;57.58;99136.75;3131497;28;20371;-69
2021/12/21 04:54:12;;;;;;;0.63;0.45;;;;;;;18.59;58.02;99135.09;3133880;28;20506;-68
2021/12/21 04:55:44;;;;;;;2.20;0.57;;;;;;;18.58;57.79;99142.28;3127669;28;20131;-67
2021/12/21 04:57:17;;;;;;;0.38;0.38;;;;;;;18.58;57.66;99138.78;3135045;28;20096;-69
2021/12/21 04:58:49;;;;;;;0.90;0.70;;;;;;;18.56;57.51;99141.69;3138893;28;20131;-68
2021/12/21 05:00:21;;;;;;;0.38;0.38;;;;;;;18.53;57.81;99136.69;3138971;28;20195;-69
2021/12/21 05:01:54;;;;;;;0.50;0.50;;;;;;;18.53;57.90;99140.19;3137014;28;20052;-68
2021/12/21 05:03:26;;;;;;;0.60;0.60;;;;;;;18.51;57.83;99134.19;3129509;28;20048;-69
2021/12/21 05:04:58;;;;;;;1.52;0.80;;;;;;;18.50;57.91;99129.84;3131387;28;20053;-67
2021/12/21 05:06:30;;;;;;;0.52;0.50;;;;;;;18.50;57.76;99139.75;3136821;28;20041;-69
2021/12/21 05:08:08;;;;;;;0.77;0.50;;;;;;;18.49;57.77;99133.53;3135895;28;20109;-68
2021/12/21 05:09:43;;;;;;;0.60;0.60;;;;;;;18.49;57.98;99133.53;3136536;28;20049;-69
2021/12/21 05:11:18;;;;;;;0.45;0.45;;;;;;;18.47;57.70;99132.91;3134214;28;20479;-69
2021/12/21 05:12:52;;;;;;;0.73;0.60;;;;;;;18.44;58.03;99127.94;3129894;28;20634;-68
2021/12/21 05:14:23;;;;;;;0.70;0.50;;;;;;;18.44;57.78;99130.63;3132641;28;20623;-68
2021/12/21 05:15:56;;;;;;;0.63;0.63;;;;;;;18.44;57.88;99135.97;3135462;28;20052;-68
2021/12/21 05:17:27;;;;;;;0.95;0.70;;;;;;;18.44;57.82;99135.97;3131916;28;20041;-68
2021/12/21 05:18:59;;;;;;;;;;;;;;;18.46;57.86;99131.22;3133874;28;20084;-68
2021/12/21 05:20:31;;;;;;;0.55;0.50;;;;;;;18.47;57.75;99135.59;3136721;28;20007;-68
2021/12/21 05:22:03;;;;;;;0.60;0.40;;;;;;;18.51;57.91;99141.41;3136688;28;20148;-68
2021/12/21 05:23:34;;;;;;;0.60;0.52;;;;;;;18.52;57.94;99141.19;3132646;28;20132;-67
2021/12/21 05:25:07;;;;;;;0.50;0.50;;;;;;;18.52;57.75;99140.38;3136532;28;20717;-68
2021/12/21 05:26:39;;;;;;;0.85;0.60;;;;;;;18.52;57.71;99146.56;3131177;28;20051;-67
2021/12/21 05:28:14;;;;;;;1.00;0.63;;;;;;;18.53;57.78;99147.44;3123565;28;20132;-68
2021/12/21 05:29:46;;;;;;;0.93;0.40;;;;;;;18.53;57.80;99148.25;3133680;28;20106;-69
2021/12/21 05:31:18;;;;;;;0.77;0.60;;;;;;;18.53;57.70;99145.56;3133761;28;20127;-67
2021/12/21 05:32:50;;;;;;;1.17;0.80;;;;;;;18.53;57.96;99144.75;3137698;28;20060;-68
2021/12/21 05:34:22;;;;;;;1.75;0.70;;;;;;;18.53;57.73;99147.44;3136594;28;20064;-69
2021/12/21 05:35:54;;;;;;;0.52;0.50;;;;;;;18.54;57.81;99154.47;3133355;28;20087;-69
2021/12/21 05:37:26;;;;;;;0.50;0.50;;;;;;;18.53;57.74;99150.13;3133271;28;20139;-68
2021/12/21 05:39:02;;;;;;;0.73;0.63;;;;;;;18.50;57.71;99148.66;3140257;28;20106;-67
2021/12/21 05:40:37;;;;;;;1.08;0.98;;;;;;;18.50;57.91;99151.34;3136852;28;20037;-68
2021/12/21 05:42:09;;;;;;;1.23;0.68;;;;;;;18.52;57.77;99156.50;3135768;28;20052;-68
2021/12/21 05:43:43;;;;;;;0.50;0.50;;;;;;;18.51;57.92;99160.22;3129292;28;20519;-69
2021/12/21 05:45:17;;;;;;;0.75;0.73;;;;;;;18.50;57.80;99154.03;3129381;28;20616;-68
2021/12/21 05:46:50;;;;;;;0.73;0.70;;;;;;;18.50;57.59;99155.88;3135245;28;20144;-68
2021/12/21 05:48:22;;;;;;;0.80;0.60;;;;;;;18.50;57.71;99166.63;3134859;28;20633;-69
2021/12/21 05:49:54;;;;;;;0.60;0.60;;;;;;;18.49;57.92;99163.06;3137536;28;20076;-68
2021/12/21 05:51:26;;;;;;;0.52;0.40;;;;;;;18.48;57.68;99164.09;3136094;28;20170;-69
2021/12/21 05:52:58;;;;;;;0.43;0.43;;;;;;;18.48;57.89;99165.97;3132005;28;20051;-69
2021/12/21 05:54:30;;;;;;;1.13;0.85;;;;;;;18.47;57.99;99161.59;3136991;28;20044;-67
2021/12/21 05:56:01;;;;;;;0.55;0.40;;;;;;;18.47;57.96;99158.91;3137266;28;20049;-67
2021/12/21 05:57:33;;;;;;;1.27;0.57;;;;;;;18.47;57.61;99164.28;3134491;28;20068;-68
2021/12/21 05:59:06;;;;;;;0.80;0.50;;;;;;;18.43;57.96;99163.03;3136275;28;20076;-69
2021/12/21 06:00:38;;;;;;;0.40;0.40;;;;;;;18.43;57.92;99160.34;3130421;28;20055;-69
2021/12/21 06:02:10;;;;;;;0.50;0.50;;;;;;;18.42;58.01;99162.19;3133529;28;20045;-69
2021/12/21 06:03:43;;;;;;;0.40;0.38;;;;;;;18.41;57.81;99171.25;3138924;28;20239;-69
2021/12/21 06:05:15;;;;;;;0.55;0.55;;;;;;;18.41;57.82;99175.78;3135585;28;20724;-69
2021/12/21 06:06:47;;;;;;;0.50;0.50;;;;;;;18.41;57.93;99168.56;3136865;28;20709;-69
2021/12/21 06:08:22;;;;;;;0.60;0.60;;;;;;;18.41;57.72;99171.25;3136276;28;20620;-68
2021/12/21 06:09:54;;;;;;;0.80;0.80;;;;;;;18.40;57.81;99169.59;3133732;28;20053;-68
2021/12/21 06:11:25;;;;;;;0.73;0.60;;;;;;;18.40;57.51;99168.78;3129933;28;20526;-68
2021/12/21 06:13:23;;;;;;;1.10;0.60;;;;;;;18.40;57.95;99166.09;3135581;28;20079;-69
2021/12/21 06:15:15;;;;;;;0.80;0.57;;;;;;;18.40;57.98;99169.59;3134557;28;20159;-69
2021/12/21 06:25:59;;;;;;;0.30;0.30;;;;;;;18.40;58.00;99166.09;3111508;28;21081;-69
2021/12/21 06:27:31;;;;;;;0.88;0.77;;;;;;;18.40;58.06;99171.47;3134048;28;20517;-68
2021/12/21 06:29:04;;;;;;;0.57;0.45;;;;;;;18.39;58.04;99170.63;3132841;28;20134;-68
2021/12/21 06:30:39;;;;;;;0.40;0.40;;;;;;;18.38;58.06;99176.19;3134965;28;20056;-69
2021/12/21 06:32:12;;;;;;;0.63;0.60;;;;;;;18.38;57.86;99174.31;3134887;28;20154;-68
2021/12/21 06:33:44;;;;;;;0.60;0.60;;;;;;;18.40;57.86;99182.19;3133451;28;20047;-69
2021/12/21 06:35:17;;;;;;;0.85;0.85;;;;;;;18.39;57.91;99175.16;3138161;28;20552;-68
2021/12/21 06:36:49;;;;;;;0.38;0.38;;;;;;;18.38;57.89;99177.00;3137718;28;20048;-69
2021/12/21 06:38:21;;;;;;;0.88;0.73;;;;;;;18.36;57.77;99176.38;3131353;28;20074;-69
2021/12/21 06:39:54;;;;;;;0.45;0.45;;;;;;;18.37;57.95;99178.03;3136337;28;20166;-68
2021/12/21 06:41:26;;;;;;;0.75;0.75;;;;;;;18.37;57.89;99179.91;3126781;28;22785;-69
2021/12/21 06:43:00;;;;;;;0.52;0.45;;;;;;;18.37;57.88;99180.72;3137004;28;20053;-68
2021/12/21 06:44:33;;;;;;;0.57;0.50;;;;;;;18.38;57.86;99185.06;3122792;28;20071;-68
2021/12/21 06:46:14;;;;;;;0.88;0.57;;;;;;;18.39;58.00;99177.84;3130610;28;20044;-70
2021/12/21 06:51:32;;;;;;;0.38;0.38;;;;;;;18.40;58.01;99183.03;3135330;28;20486;-69
2021/12/21 06:53:04;;;;;;;1.00;0.68;;;;;;;18.40;57.99;99176.81;3137408;28;20070;-69
2021/12/21 06:54:36;;;;;;;0.30;0.30;;;;;;;18.39;58.01;99181.38;3130481;28;20041;-68
2021/12/21 06:56:09;;;;;;;1.05;0.77;;;;;;;18.40;57.73;99180.34;3136005;28;20044;-69
2021/12/21 06:57:43;;;;;;;0.20;0.20;;;;;;;18.39;57.85;99184.06;3136838;28;20122;-69
2021/12/21 06:59:15;;;;;;;0.73;0.60;;;;;;;18.40;57.81;99182.19;3135199;28;20110;-70
2021/12/21 07:00:49;;;;;;;0.75;0.65;;;;;;;18.39;57.79;99191.28;3128702;28;20059;-69
2021/12/21 07:02:23;;;;;;;0.65;0.55;;;;;;;18.39;58.13;99192.13;3136993;28;20057;-70
2021/12/21 07:03:57;;;;;;;0.65;0.50;;;;;;;18.39;57.99;99196.66;3125620;28;20693;-69
2021/12/21 07:05:29;;;;;;;0.68;0.68;;;;;;;18.38;57.86;99203.84;3132188;28;20556;-69
2021/12/21 07:07:02;;;;;;;0.75;0.60;;;;;;;18.36;58.02;99203.25;3135799;28;20171;-69
2021/12/21 07:08:44;;;;;;;1.10;1.00;;;;;;;18.37;57.93;99194.16;3132708;28;20079;-70
2021/12/21 07:10:22;;;;;;;0.82;0.50;;;;;;;18.38;57.83;99200.34;3128258;28;20052;-67
2021/12/21 07:12:09;;;;;;;0.57;0.57;;;;;;;18.37;57.87;99199.53;3128973;28;20059;-70
2021/12/21 07:19:10;;;;;;;0.52;0.43;;;;;;;18.34;57.91;99216.00;3131082;28;20041;-69
2021/12/21 07:20:42;;;;;;;0.85;0.73;;;;;;;18.31;58.00;99206.47;3127766;28;21043;-70
2021/12/21 07:22:14;;;;;;;0.50;0.43;;;;;;;18.34;57.98;99215.19;3130277;28;20096;-70
2021/12/21 07:23:46;;;;;;;1.00;0.80;;;;;;;18.33;58.04;99217.03;3126722;28;20084;-70
2021/12/21 07:25:18;;;;;;;0.90;0.70;;;;;;;18.33;57.97;99214.34;3128542;28;20124;-69
2021/12/21 07:26:50;;;;;;;0.50;0.50;;;;;;;18.33;57.92;99222.41;3129715;28;20049;-68
2021/12/21 07:28:22;;;;;;;0.63;0.63;;;;;;;18.34;57.96;99226.75;3132123;28;20132;-67
2021/12/21 07:29:53;;;;;;;0.60;0.60;;;;;;;18.34;58.01;99229.44;3124655;28;20060;-67
2021/12/21 07:31:25;;;;;;;0.40;0.40;;;;;;;18.35;58.05;99235.63;3130297;28;20290;-69
2021/12/21 07:32:57;;;;;;;0.70;0.60;;;;;;;18.34;57.92;99234.81;3130478;28;20755;-67
2021/12/21 07:34:30;;;;;;;0.30;0.30;;;;;;;18.35;58.13;99232.94;3116597;28;20083;-68
2021/12/21 07:36:03;;;;;;;1.02;0.60;;;;;;;18.34;58.07;99236.66;3125712;28;20502;-69
2021/12/21 07:37:35;;;;;;;0.73;0.70;;;;;;;18.34;57.96;99240.19;3128019;28;20476;-70
2021/12/21 07:39:07;;;;;;;0.60;0.60;;;;;;;18.33;58.07;99240.34;3128093;28;20045;-70
2021/12/21 07:40:39;;;;;;;1.42;0.55;;;;;;;18.31;58.17;99244.06;3126975;28;20036;-70
2021/12/21 07:42:11;;;;;;;0.60;0.50;;;;;;;18.33;58.10;99243.91;3127741;28;20131;-70
2021/12/21 07:43:43;;;;;;;0.60;0.50;;;;;;;18.35;57.84;99246.38;3125188;28;20044;-70
2021/12/21 07:45:15;;;;;;;0.60;0.60;;;;;;;18.35;57.95;99241.84;3129461;28;20064;-69
2021/12/21 07:46:47;;;;;;;0.55;0.40;;;;;;;18.37;57.96;99247.03;3130084;28;20053;-70
2021/12/21 07:48:19;;;;;;;0.50;0.50;;;;;;;18.38;57.93;99254.06;3126918;28;20045;-69
2021/12/21 07:49:53;;;;;;;0.60;0.60;;;;;;;18.40;57.80;99252.03;3126217;28;20117;-69
2021/12/21 07:51:25;;;;;;;0.52;0.43;;;;;;;18.39;57.86;99251.19;3126479;28;20072;-69
2021/12/21 07:53:00;;;;;;;0.57;0.57;;;;;;;18.40;58.06;99246.66;3130183;28;20136;-68
2021/12/21 07:54:31;;;;;;;0.95;0.60;;;;;;;18.40;57.99;99238.59;3126094;28;20759;-69
2021/12/21 07:56:03;;;;;;;;;;;;;;;18.38;57.75;99238.78;3131085;28;20131;-69
2021/12/21 07:57:35;;;;;;;1.00;0.60;;;;;;;18.38;58.00;99241.47;3133711;28;19928;-70